createdAt,value
2022-08-17T00:02:27.388Z,25.78
2022-08-17T00:04:55.501Z,25.59
2022-08-17T00:07:22.714Z,25.38
2022-08-17T00:09:49.358Z,25.40
2022-08-17T00:12:41.578Z,25.37
2022-08-17T00:15:05.394Z,25.32
2022-08-17T00:17:32.683Z,25.23
2022-08-17T00:20:00.695Z,25.31
2022-08-17T00:22:34.061Z,25.39
2022-08-17T00:25:07.103Z,25.38
2022-08-17T00:27:33.971Z,25.58
2022-08-17T00:30:00.607Z,25.32
2022-08-17T00:33:15.013Z,25.13
2022-08-17T00:35:19.609Z,24.99
2022-08-17T00:37:46.353Z,24.99
2022-08-17T00:40:14.953Z,25.10
2022-08-17T00:42:43.309Z,25.06
2022-08-17T00:45:13.607Z,24.99
2022-08-17T00:47:41.715Z,24.87
2022-08-17T00:50:12.159Z,24.85
2022-08-17T00:52:54.968Z,24.79
2022-08-17T00:55:24.019Z,24.87
2022-08-17T00:57:55.624Z,24.85
2022-08-17T01:00:30.379Z,24.76
2022-08-17T01:03:06.425Z,24.54
2022-08-17T01:05:42.516Z,24.78
2022-08-17T01:08:13.169Z,24.57
2022-08-17T01:10:59.866Z,24.52
2022-08-17T01:13:38.179Z,24.57
2022-08-17T01:16:10.092Z,24.50
2022-08-17T01:18:38.036Z,24.55
2022-08-17T01:21:14.154Z,24.61
2022-08-17T01:23:42.430Z,24.69
2022-08-17T01:26:09.161Z,24.69
2022-08-17T01:28:54.203Z,24.45
2022-08-17T01:31:23.938Z,24.34
2022-08-17T01:33:50.600Z,24.36
2022-08-17T01:36:17.282Z,24.55
2022-08-17T01:38:43.933Z,24.34
2022-08-17T01:41:14.586Z,24.38
2022-08-17T01:43:57.242Z,24.20
2022-08-17T01:46:28.072Z,24.32
2022-08-17T01:48:57.440Z,24.24
2022-08-17T01:51:33.300Z,24.23
2022-08-17T01:54:13.593Z,24.38
2022-08-17T01:56:44.216Z,24.12
2022-08-17T01:59:15.082Z,24.13
2022-08-17T02:01:43.535Z,24.10
2022-08-17T02:04:11.350Z,24.06
2022-08-17T02:06:44.925Z,23.92
2022-08-17T02:09:23.338Z,23.99
2022-08-17T02:11:52.389Z,23.83
2022-08-17T02:14:21.234Z,23.86
2022-08-17T02:16:47.875Z,23.92
2022-08-17T02:19:16.053Z,23.99
2022-08-17T02:21:45.425Z,23.98
2022-08-17T02:24:58.853Z,24.01
2022-08-17T02:27:05.925Z,23.91
2022-08-17T02:29:32.740Z,24.00
2022-08-17T02:32:00.208Z,23.73
2022-08-17T02:34:27.539Z,23.91
2022-08-17T02:36:54.334Z,23.88
2022-08-17T02:39:21.093Z,23.86
2022-08-17T02:41:47.802Z,23.85
2022-08-17T02:44:14.492Z,23.76
2022-08-17T02:47:01.222Z,23.72
2022-08-17T02:49:27.885Z,23.66
2022-08-17T02:51:57.062Z,23.69
2022-08-17T02:54:41.827Z,23.65
2022-08-17T02:57:11.876Z,23.52
2022-08-17T02:59:39.946Z,23.69
2022-08-17T03:02:08.475Z,23.63
2022-08-17T03:04:35.680Z,23.64
2022-08-17T03:07:04.165Z,23.56
2022-08-17T03:12:09.775Z,23.58
2022-08-17T03:14:41.923Z,23.79
2022-08-17T03:17:10.114Z,23.63
2022-08-17T03:19:37.433Z,23.65
2022-08-17T03:22:35.663Z,23.66
2022-08-17T03:27:36.145Z,23.57
2022-08-17T03:30:08.633Z,23.62
2022-08-17T03:32:43.913Z,23.56
2022-08-17T03:35:12.231Z,23.55
2022-08-17T03:37:40.464Z,23.62
2022-08-17T03:40:08.215Z,23.46
2022-08-17T03:42:38.132Z,23.60
2022-08-17T03:45:08.298Z,23.39
2022-08-17T03:47:53.467Z,23.36
2022-08-17T03:50:40.331Z,23.42
2022-08-17T03:53:30.176Z,23.31
2022-08-17T03:56:20.211Z,23.35
2022-08-17T03:58:47.243Z,23.43
2022-08-17T04:01:14.905Z,23.42
2022-08-17T04:03:41.583Z,23.39
2022-08-17T04:06:08.323Z,23.35
2022-08-17T04:08:35.576Z,23.43
2022-08-17T04:11:02.469Z,23.34
2022-08-17T04:13:29.242Z,23.37
2022-08-17T04:15:57.313Z,23.34
2022-08-17T04:18:24.004Z,23.42
2022-08-17T04:20:50.580Z,23.39
2022-08-17T04:23:18.907Z,23.24
2022-08-17T04:25:49.059Z,23.37
2022-08-17T04:28:17.632Z,23.46
2022-08-17T04:30:46.094Z,23.39
2022-08-17T04:33:16.457Z,23.28
2022-08-17T04:35:48.921Z,23.55
2022-08-17T04:38:18.525Z,23.61
2022-08-17T04:41:04.237Z,23.82
2022-08-17T04:43:32.887Z,24.04
2022-08-17T04:46:05.618Z,23.83
2022-08-17T04:48:37.004Z,23.71
2022-08-17T04:51:21.861Z,23.90
2022-08-17T04:53:54.314Z,23.81
2022-08-17T04:56:22.874Z,23.76
2022-08-17T04:58:51.616Z,23.70
2022-08-17T05:01:23.946Z,23.93
2022-08-17T05:03:56.490Z,23.77
2022-08-17T05:06:23.812Z,24.03
2022-08-17T05:08:50.962Z,24.28
2022-08-17T05:11:18.291Z,24.84
2022-08-17T05:13:45.190Z,25.16
2022-08-17T05:16:12.425Z,25.60
2022-08-17T05:18:41.270Z,25.78
2022-08-17T05:21:08.532Z,25.61
2022-08-17T05:23:42.813Z,25.87
2022-08-17T05:26:22.572Z,26.31
2022-08-17T05:28:52.793Z,26.25
2022-08-17T05:31:20.958Z,26.52
2022-08-17T05:33:47.799Z,26.50
2022-08-17T05:36:42.985Z,26.54
2022-08-17T05:39:02.508Z,26.87
2022-08-17T05:41:29.165Z,26.80
2022-08-17T05:43:56.643Z,27.03
2022-08-17T05:46:35.076Z,27.25
2022-08-17T05:49:05.662Z,27.18
2022-08-17T05:52:06.303Z,27.08
2022-08-17T05:54:47.770Z,27.16
2022-08-17T05:57:43.359Z,27.23
2022-08-17T06:00:30.275Z,27.43
2022-08-17T06:03:12.794Z,27.52
2022-08-17T06:05:50.640Z,27.79
2022-08-17T06:08:40.739Z,27.99
2022-08-17T06:11:10.072Z,27.96
2022-08-17T06:14:01.256Z,27.96
2022-08-17T06:16:36.325Z,28.45
2022-08-17T06:19:05.804Z,28.98
2022-08-17T06:21:39.437Z,28.95
2022-08-17T06:24:18.128Z,28.99
2022-08-17T06:26:45.747Z,28.81
2022-08-17T06:29:27.898Z,28.62
2022-08-17T06:31:54.643Z,29.16
2022-08-17T06:34:21.748Z,28.81
2022-08-17T06:37:05.474Z,29.06
2022-08-17T06:39:47.692Z,29.12
2022-08-17T06:43:02.718Z,29.52
2022-08-17T06:45:31.782Z,29.29
2022-08-17T06:48:17.725Z,29.72
2022-08-17T06:50:47.888Z,30.02
2022-08-17T06:53:26.754Z,30.55
2022-08-17T06:55:58.502Z,31.23
2022-08-17T06:58:28.950Z,30.86
2022-08-17T07:00:59.565Z,31.09
2022-08-17T07:03:29.250Z,30.63
2022-08-17T07:06:05.673Z,30.91
2022-08-17T07:08:51.217Z,30.48
2022-08-17T07:11:31.793Z,31.08
2022-08-17T07:14:45.793Z,31.33
2022-08-17T07:17:17.280Z,31.28
2022-08-17T07:19:46.735Z,31.59
2022-08-17T07:22:57.197Z,31.50
2022-08-17T07:25:20.877Z,31.94
2022-08-17T07:27:51.488Z,31.78
2022-08-17T07:30:31.893Z,30.95
2022-08-17T07:33:23.691Z,31.72
2022-08-17T07:35:50.667Z,31.91
2022-08-17T07:38:29.103Z,32.55
2022-08-17T07:41:02.111Z,32.34
2022-08-17T07:43:41.131Z,32.91
2022-08-17T07:46:38.621Z,32.92
2022-08-17T07:49:07.582Z,32.81
2022-08-17T07:51:43.731Z,32.37
2022-08-17T07:54:16.138Z,32.64
2022-08-17T07:56:45.298Z,31.80
2022-08-17T07:59:13.973Z,32.31
2022-08-17T08:01:45.690Z,32.44
2022-08-17T08:04:43.254Z,32.98
2022-08-17T08:07:26.371Z,33.46
2022-08-17T08:09:59.013Z,33.39
2022-08-17T08:12:33.814Z,33.60
2022-08-17T08:15:20.716Z,33.46
2022-08-17T08:17:54.068Z,32.70
2022-08-17T08:20:53.849Z,32.65
2022-08-17T08:23:53.004Z,32.65
2022-08-17T08:26:45.137Z,33.38
2022-08-17T08:29:33.506Z,33.24
2022-08-17T08:32:14.596Z,32.48
2022-08-17T08:35:01.827Z,32.89
2022-08-17T08:37:49.547Z,33.69
2022-08-17T08:40:31.411Z,32.89
2022-08-17T08:43:26.707Z,33.72
2022-08-17T08:46:24.372Z,34.07
2022-08-17T08:49:06.501Z,33.06
2022-08-17T08:51:57.630Z,33.36
2022-08-17T08:54:42.369Z,34.39
2022-08-17T08:57:34.265Z,34.37
2022-08-17T09:00:23.733Z,35.15
2022-08-17T09:03:14.170Z,35.13
2022-08-17T09:05:54.249Z,35.27
2022-08-17T09:08:29.660Z,34.57
2022-08-17T09:11:10.812Z,34.93
2022-08-17T09:13:57.652Z,34.76
2022-08-17T09:16:29.745Z,35.35
2022-08-17T09:19:17.038Z,35.71
2022-08-17T09:21:52.668Z,34.83
2022-08-17T09:24:35.960Z,35.24
2022-08-17T09:27:13.804Z,35.52
2022-08-17T09:29:48.497Z,36.22
2022-08-17T09:32:20.643Z,36.31
2022-08-17T09:35:00.265Z,35.34
2022-08-17T09:38:04.704Z,35.74
2022-08-17T09:40:43.444Z,36.14
2022-08-17T09:43:41.250Z,35.17
2022-08-17T09:46:25.556Z,35.84
2022-08-17T09:48:58.386Z,35.56
2022-08-17T09:51:34.882Z,35.44
2022-08-17T09:54:21.371Z,34.77
2022-08-17T09:57:28.025Z,35.93
2022-08-17T10:00:15.035Z,33.98
2022-08-17T10:03:09.847Z,35.83
2022-08-17T10:05:40.796Z,35.73
2022-08-17T10:08:30.597Z,36.27
2022-08-17T10:11:00.388Z,36.86
2022-08-17T10:13:47.178Z,34.98
2022-08-17T10:16:37.414Z,36.47
2022-08-17T10:19:30.173Z,35.31
2022-08-17T10:22:34.765Z,35.88
2022-08-17T10:25:26.111Z,34.87
2022-08-17T10:28:07.444Z,36.58
2022-08-17T10:30:49.502Z,37.34
2022-08-17T10:33:53.400Z,36.91
2022-08-17T10:36:38.080Z,37.06
2022-08-17T10:39:27.451Z,35.64
2022-08-17T10:42:00.516Z,36.11
2022-08-17T10:44:47.760Z,34.09
2022-08-17T10:47:17.721Z,34.32
2022-08-17T10:49:53.884Z,35.02
2022-08-17T10:52:20.977Z,34.42
2022-08-17T10:54:48.651Z,33.52
2022-08-17T10:57:27.182Z,34.49
2022-08-17T10:59:56.613Z,34.35
2022-08-17T11:02:27.501Z,34.68
2022-08-17T11:05:00.145Z,35.35
2022-08-17T11:08:05.398Z,35.09
2022-08-17T11:10:48.601Z,35.99
2022-08-17T11:13:30.543Z,34.31
2022-08-17T11:16:12.392Z,34.21
2022-08-17T11:18:45.153Z,35.54
2022-08-17T11:21:39.874Z,35.75
2022-08-17T11:24:28.296Z,34.84
2022-08-17T11:27:20.016Z,34.09
2022-08-17T11:30:01.513Z,34.76
2022-08-17T11:32:48.727Z,36.12
2022-08-17T11:35:21.574Z,36.14
2022-08-17T11:37:54.064Z,34.02
2022-08-17T11:40:20.728Z,33.69
2022-08-17T11:42:54.815Z,33.88
2022-08-17T11:45:39.895Z,34.07
2022-08-17T11:49:01.628Z,34.89
2022-08-17T11:51:55.688Z,34.11
2022-08-17T11:54:34.057Z,35.53
2022-08-17T11:57:26.974Z,35.26
2022-08-17T12:00:13.879Z,35.05
2022-08-17T12:02:48.392Z,35.33
2022-08-17T12:05:16.921Z,34.58
2022-08-17T12:07:51.946Z,34.37
2022-08-17T12:10:23.392Z,35.38
2022-08-17T12:12:53.450Z,35.71
2022-08-17T12:15:28.893Z,35.31
2022-08-17T12:17:57.381Z,34.80
2022-08-17T12:20:28.330Z,35.17
2022-08-17T12:23:01.143Z,35.05
2022-08-17T12:25:38.057Z,35.50
2022-08-17T12:28:20.028Z,34.94
2022-08-17T12:30:52.045Z,34.75
2022-08-17T12:33:27.779Z,33.76
2022-08-17T12:36:05.414Z,34.39
2022-08-17T12:38:38.052Z,35.01
2022-08-17T12:41:26.015Z,35.34
2022-08-17T12:44:05.206Z,35.01
2022-08-17T12:46:48.954Z,34.86
2022-08-17T12:49:22.940Z,34.36
2022-08-17T12:51:51.735Z,34.91
2022-08-17T12:54:27.953Z,35.03
2022-08-17T12:56:55.177Z,34.97
2022-08-17T12:59:30.007Z,34.28
2022-08-17T13:01:57.304Z,34.68
2022-08-17T13:04:24.320Z,34.41
2022-08-17T13:06:58.155Z,34.08
2022-08-17T13:09:30.975Z,34.99
2022-08-17T13:12:02.083Z,34.78
2022-08-17T13:14:29.458Z,33.65
2022-08-17T13:17:02.428Z,33.75
2022-08-17T13:19:40.307Z,33.68
2022-08-17T13:22:11.422Z,33.72
2022-08-17T13:24:38.739Z,34.31
2022-08-17T13:27:10.236Z,34.83
2022-08-17T13:29:53.788Z,34.82
2022-08-17T13:32:44.053Z,35.41
2022-08-17T13:35:39.941Z,35.21
2022-08-17T13:38:08.759Z,34.72
2022-08-17T13:40:50.104Z,34.61
2022-08-17T13:43:46.191Z,34.57
2022-08-17T13:46:32.753Z,34.40
2022-08-17T13:49:06.614Z,34.29
2022-08-17T13:51:42.081Z,34.81
2022-08-17T13:54:26.942Z,34.76
2022-08-17T13:56:57.923Z,34.27
2022-08-17T13:59:53.255Z,34.38
2022-08-17T14:02:20.351Z,34.33
2022-08-17T14:04:47.954Z,34.10
2022-08-17T14:07:16.003Z,34.03
2022-08-17T14:10:10.940Z,34.51
2022-08-17T14:12:40.005Z,34.60
2022-08-17T14:15:08.050Z,34.27
2022-08-17T14:17:38.632Z,34.88
2022-08-17T14:20:09.975Z,35.03
2022-08-17T14:22:39.070Z,34.51
2022-08-17T14:25:10.287Z,34.64
2022-08-17T14:27:51.945Z,34.92
2022-08-17T14:30:28.884Z,34.69
2022-08-17T14:32:58.210Z,34.50
2022-08-17T14:35:27.911Z,34.11
2022-08-17T14:37:55.367Z,34.18
2022-08-17T14:40:24.980Z,34.40
2022-08-17T14:42:53.870Z,34.15
2022-08-17T14:45:32.929Z,34.35
2022-08-17T14:48:05.798Z,34.44
2022-08-17T14:50:35.411Z,34.82
2022-08-17T14:53:03.907Z,34.20
2022-08-17T14:55:31.141Z,34.62
2022-08-17T14:57:58.381Z,34.47
2022-08-17T15:00:26.776Z,35.03
2022-08-17T15:02:56.697Z,33.98
2022-08-17T15:05:26.123Z,33.25
2022-08-17T15:07:53.650Z,33.91
2022-08-17T15:10:21.359Z,34.14
2022-08-17T15:12:48.236Z,33.74
2022-08-17T15:15:16.891Z,33.75
2022-08-17T15:17:54.781Z,34.45
2022-08-17T15:20:28.041Z,33.71
2022-08-17T15:22:56.091Z,33.74
2022-08-17T15:25:25.013Z,33.53
2022-08-17T15:27:52.191Z,33.72
2022-08-17T15:30:19.592Z,33.96
2022-08-17T15:32:54.059Z,33.87
2022-08-17T15:35:27.040Z,33.72
2022-08-17T15:37:56.511Z,33.14
2022-08-17T15:40:23.298Z,33.41
2022-08-17T15:42:51.132Z,33.57
2022-08-17T15:45:22.616Z,34.16
2022-08-17T15:47:49.439Z,33.72
2022-08-17T15:50:16.474Z,33.69
2022-08-17T15:52:44.977Z,33.86
2022-08-17T15:55:14.210Z,33.90
2022-08-17T15:57:40.991Z,33.96
2022-08-17T16:00:10.201Z,33.38
2022-08-17T16:03:46.253Z,33.12
2022-08-17T16:05:30.122Z,33.48
2022-08-17T16:07:58.645Z,33.54
2022-08-17T16:10:35.322Z,33.17
2022-08-17T16:13:03.446Z,33.20
2022-08-17T16:15:31.610Z,32.90
2022-08-17T16:17:59.105Z,33.52
2022-08-17T16:20:25.792Z,33.02
2022-08-17T16:22:52.907Z,33.32
2022-08-17T16:25:38.807Z,33.58
2022-08-17T16:28:13.744Z,32.96
2022-08-17T16:30:41.250Z,32.40
2022-08-17T16:33:11.335Z,33.38
2022-08-17T16:35:38.358Z,33.29
2022-08-17T16:38:05.150Z,33.37
2022-08-17T16:40:36.053Z,32.54
2022-08-17T16:43:03.461Z,32.56
2022-08-17T16:45:36.354Z,31.75
2022-08-17T16:48:03.582Z,32.01
2022-08-17T16:50:31.927Z,32.16
2022-08-17T16:53:08.116Z,32.01
2022-08-17T16:55:35.787Z,32.43
2022-08-17T16:58:05.104Z,32.46
2022-08-17T17:00:33.451Z,31.53
2022-08-17T17:03:19.480Z,32.51
2022-08-17T17:06:07.303Z,31.95
2022-08-17T17:08:44.858Z,32.57
2022-08-17T17:11:21.526Z,31.50
2022-08-17T17:14:01.500Z,31.80
2022-08-17T17:16:47.757Z,31.82
2022-08-17T17:19:18.034Z,31.68
2022-08-17T17:22:22.833Z,31.16
2022-08-17T17:25:06.133Z,31.63
2022-08-17T17:28:07.869Z,31.92
2022-08-17T17:30:48.266Z,31.78
2022-08-17T17:33:45.135Z,31.56
2022-08-17T17:36:31.647Z,31.67
2022-08-17T17:39:12.075Z,31.84
2022-08-17T17:41:52.834Z,30.94
2022-08-17T17:44:30.595Z,31.15
2022-08-17T17:47:00.358Z,31.31
2022-08-17T17:49:34.355Z,30.67
2022-08-17T17:52:22.678Z,31.27
2022-08-17T17:55:35.248Z,30.78
2022-08-17T17:58:42.584Z,31.42
2022-08-17T18:01:21.517Z,31.31
2022-08-17T18:04:20.862Z,31.37
2022-08-17T18:07:18.686Z,31.12
2022-08-17T18:10:01.539Z,31.10
2022-08-17T18:12:57.375Z,31.42
2022-08-17T18:15:37.062Z,30.92
2022-08-17T18:18:16.015Z,31.19
2022-08-17T18:20:53.223Z,30.71
2022-08-17T18:23:27.718Z,30.24
2022-08-17T18:25:56.879Z,30.35
2022-08-17T18:28:36.713Z,30.03
2022-08-17T18:31:03.415Z,30.10
2022-08-17T18:33:30.199Z,30.31
2022-08-17T18:35:59.347Z,30.57
2022-08-17T18:38:33.868Z,30.06
2022-08-17T18:41:02.888Z,30.56
2022-08-17T18:43:44.202Z,30.02
2022-08-17T18:46:29.283Z,30.37
2022-08-17T18:49:07.649Z,30.31
2022-08-17T18:51:42.073Z,29.81
2022-08-17T18:54:14.574Z,30.18
2022-08-17T18:57:00.545Z,29.75
2022-08-17T18:59:53.564Z,28.28
2022-08-17T19:02:43.854Z,27.24
2022-08-17T19:05:30.684Z,27.13
2022-08-17T19:08:14.665Z,27.12
2022-08-17T19:10:47.026Z,26.89
2022-08-17T19:13:34.014Z,26.66
2022-08-17T19:16:17.575Z,26.96
2022-08-17T19:18:52.086Z,27.22
2022-08-17T19:21:24.998Z,26.78
2022-08-17T19:23:58.900Z,27.11
2022-08-17T19:26:53.561Z,27.03
2022-08-17T19:29:36.148Z,27.18
2022-08-17T19:32:04.175Z,27.25
2022-08-17T19:34:34.636Z,27.02
2022-08-17T19:37:16.720Z,27.32
2022-08-17T19:40:08.907Z,27.13
2022-08-17T19:42:51.342Z,26.67
2022-08-17T19:45:33.089Z,26.57
2022-08-17T19:48:23.305Z,26.62
2022-08-17T19:51:06.344Z,26.82
2022-08-17T19:54:04.430Z,26.87
2022-08-17T19:56:43.573Z,26.64
2022-08-17T19:59:22.318Z,26.44
2022-08-17T20:02:20.872Z,26.55
2022-08-17T20:04:50.542Z,26.85
2022-08-17T20:07:25.923Z,26.88
2022-08-17T20:10:08.004Z,26.50
2022-08-17T20:12:38.502Z,26.49
2022-08-17T20:15:16.976Z,26.45
2022-08-17T20:17:46.946Z,26.74
2022-08-17T20:20:20.248Z,26.29
2022-08-17T20:22:53.306Z,26.32
2022-08-17T20:25:36.290Z,26.54
2022-08-17T20:28:21.127Z,26.11
2022-08-17T20:30:47.801Z,26.22
2022-08-17T20:33:28.721Z,26.30
2022-08-17T20:36:24.849Z,26.36
2022-08-17T20:38:58.182Z,26.38
2022-08-17T20:41:28.387Z,26.55
2022-08-17T20:43:58.676Z,26.48
2022-08-17T20:46:37.713Z,26.36
2022-08-17T20:49:22.398Z,25.90
2022-08-17T20:52:09.664Z,26.24
2022-08-17T20:54:49.596Z,25.98
2022-08-17T20:57:31.589Z,25.63
2022-08-17T21:00:00.212Z,25.79
2022-08-17T21:02:28.345Z,26.09
2022-08-17T21:05:07.156Z,25.87
2022-08-17T21:07:51.125Z,25.86
2022-08-17T21:10:23.965Z,25.53
2022-08-17T21:13:25.766Z,25.39
2022-08-17T21:15:52.563Z,25.65
2022-08-17T21:18:41.902Z,25.56
2022-08-17T21:21:32.682Z,25.97
2022-08-17T21:24:21.158Z,25.42
2022-08-17T21:27:09.392Z,25.72
2022-08-17T21:29:52.860Z,25.48
2022-08-17T21:32:29.107Z,25.72
2022-08-17T21:35:07.728Z,25.63
2022-08-17T21:37:40.458Z,25.78
2022-08-17T21:40:09.917Z,25.49
2022-08-17T21:42:44.985Z,25.35
2022-08-17T21:45:24.250Z,25.48
2022-08-17T21:48:09.249Z,25.49
2022-08-17T21:50:36.878Z,25.33
2022-08-17T21:53:05.208Z,25.42
2022-08-17T21:55:35.985Z,25.36
2022-08-17T21:58:19.179Z,25.16
2022-08-17T22:00:45.932Z,25.45
2022-08-17T22:03:24.069Z,25.26
2022-08-17T22:05:51.566Z,24.95
2022-08-17T22:08:24.377Z,25.16
2022-08-17T22:10:59.893Z,25.31
2022-08-17T22:13:29.416Z,25.37
2022-08-17T22:16:28.578Z,24.82
2022-08-17T22:18:53.724Z,24.92
2022-08-17T22:21:22.599Z,25.11
2022-08-17T22:24:04.891Z,25.10
2022-08-17T22:27:00.166Z,25.17
2022-08-17T22:29:45.837Z,25.15
2022-08-17T22:32:35.064Z,25.16
2022-08-17T22:35:36.028Z,24.84
2022-08-17T22:38:18.024Z,24.94
2022-08-17T22:40:52.042Z,24.70
2022-08-17T22:43:26.465Z,24.81
2022-08-17T22:45:55.670Z,25.04
2022-08-17T22:48:27.485Z,24.86
2022-08-17T22:51:13.990Z,24.74
2022-08-17T22:54:08.217Z,24.84
2022-08-17T22:56:54.136Z,24.68
2022-08-17T22:59:40.047Z,24.49
2022-08-17T23:02:19.453Z,24.75
2022-08-17T23:05:12.988Z,24.51
2022-08-17T23:07:45.464Z,24.38
2022-08-17T23:10:13.749Z,24.52
2022-08-17T23:12:43.606Z,24.55
2022-08-17T23:15:16.308Z,24.47
2022-08-17T23:17:49.791Z,24.65
2022-08-17T23:20:17.615Z,24.27
2022-08-17T23:22:51.794Z,23.86
2022-08-17T23:25:28.154Z,24.33
2022-08-17T23:27:57.610Z,24.30
2022-08-17T23:30:25.650Z,24.08
2022-08-17T23:32:54.258Z,24.56
2022-08-17T23:35:40.296Z,24.20
2022-08-17T23:38:09.507Z,24.30
2022-08-17T23:40:37.772Z,24.29
2022-08-17T23:43:17.650Z,24.24
2022-08-17T23:45:57.407Z,24.54
2022-08-17T23:48:35.192Z,24.58
2022-08-17T23:51:05.941Z,24.41
2022-08-17T23:53:34.807Z,24.19
2022-08-17T23:56:09.297Z,24.10
2022-08-17T23:58:38.492Z,24.32
